Tracy, Minnesota
Current Conditions -  °F | °C
As of 10:33 AM on Friday 21 Nov 2014 (Local Time) from KTKC Reporting Station
Clear Clear  
Wind Chill: 16°   Ceiling: Unl
Heat Index: 30°   Visibility: 10mi
Dew Point: 21°   Wind: 26mph
Humidity: 68%   Direction: 200°SSW
Pressure: 29.99"   Gusts: 35mph
Location:  44.23°N, 95.62°W
Report Text: KTKC 211633Z AUTO 20023G30KT 10SM CLR M01/M06 A2999 RMK AO2 T10101062
Loading
Personal Weather Stations






























Interactive Weather Map New forecast layout! Learn more

10-Day Weather Forecast

Advertisements
Track Severe Weather on mobile